sensor_id;sensor_type;location;lat;lon;timestamp;pressure;altitude;pressure_sealevel;temperature;humidity
72110;BME280;59983;52.010;5.420;2023-02-19T00:01:44;101794.34;;;9.22;100.00
72110;BME280;59983;52.010;5.420;2023-02-19T00:04:13;101789.53;;;9.19;100.00
72110;BME280;59983;52.010;5.420;2023-02-19T00:06:41;101773.31;;;9.19;100.00
72110;BME280;59983;52.010;5.420;2023-02-19T00:09:09;101783.03;;;9.20;100.00
72110;BME280;59983;52.010;5.420;2023-02-19T00:11:36;101793.56;;;9.21;100.00
72110;BME280;59983;52.010;5.420;2023-02-19T00:14:04;101784.63;;;9.21;100.00
72110;BME280;59983;52.010;5.420;2023-02-19T00:16:33;101775.72;;;9.20;100.00
72110;BME280;59983;52.010;5.420;2023-02-19T00:19:02;101786.72;;;9.24;100.00
72110;BME280;59983;52.010;5.420;2023-02-19T00:21:29;101787.81;;;9.23;100.00
72110;BME280;59983;52.010;5.420;2023-02-19T00:23:58;101793.25;;;9.23;100.00
72110;BME280;59983;52.010;5.420;2023-02-19T00:26:25;101789.91;;;9.26;100.00
72110;BME280;59983;52.010;5.420;2023-02-19T00:28:53;101794.84;;;9.24;100.00
72110;BME280;59983;52.010;5.420;2023-02-19T00:31:32;101792.13;;;9.24;100.00
72110;BME280;59983;52.010;5.420;2023-02-19T00:34:02;101797.66;;;9.19;100.00
72110;BME280;59983;52.010;5.420;2023-02-19T00:36:30;101790.06;;;9.21;100.00
72110;BME280;59983;52.010;5.420;2023-02-19T00:38:57;101791.44;;;9.18;100.00
72110;BME280;59983;52.010;5.420;2023-02-19T00:41:24;101799.56;;;9.18;100.00
72110;BME280;59983;52.010;5.420;2023-02-19T00:43:56;101798.50;;;9.19;100.00
72110;BME280;59983;52.010;5.420;2023-02-19T00:48:55;101797.38;;;9.20;100.00
72110;BME280;59983;52.010;5.420;2023-02-19T00:51:24;101788.47;;;9.20;100.00
72110;BME280;59983;52.010;5.420;2023-02-19T00:53:51;101793.06;;;9.19;100.00
72110;BME280;59983;52.010;5.420;2023-02-19T00:56:18;101791.44;;;9.18;100.00
72110;BME280;59983;52.010;5.420;2023-02-19T00:58:45;101792.25;;;9.19;100.00
72110;BME280;59983;52.010;5.420;2023-02-19T01:01:12;101790.66;;;9.18;100.00
72110;BME280;59983;52.010;5.420;2023-02-19T01:03:39;101798.50;;;9.19;100.00
72110;BME280;59983;52.010;5.420;2023-02-19T01:06:08;101798.16;;;9.21;100.00
72110;BME280;59983;52.010;5.420;2023-02-19T01:08:35;101803.91;;;9.19;100.00
72110;BME280;59983;52.010;5.420;2023-02-19T01:11:02;101801.19;;;9.19;100.00
72110;BME280;59983;52.010;5.420;2023-02-19T01:13:30;101810.41;;;9.18;100.00
72110;BME280;59983;52.010;5.420;2023-02-19T01:16:18;101813.09;;;9.18;100.00
72110;BME280;59983;52.010;5.420;2023-02-19T01:18:46;101817.44;;;9.19;100.00
72110;BME280;59983;52.010;5.420;2023-02-19T01:21:18;101813.09;;;9.18;100.00
72110;BME280;59983;52.010;5.420;2023-02-19T01:23:45;101816.94;;;9.17;100.00
72110;BME280;59983;52.010;5.420;2023-02-19T01:26:15;101833.47;;;9.16;100.00
72110;BME280;59983;52.010;5.420;2023-02-19T01:28:42;101827.75;;;9.17;100.00
72110;BME280;59983;52.010;5.420;2023-02-19T01:31:12;101831.56;;;9.16;100.00
72110;BME280;59983;52.010;5.420;2023-02-19T01:33:47;101816.44;;;9.15;100.00
72110;BME280;59983;52.010;5.420;2023-02-19T01:36:14;101832.69;;;9.15;100.00
72110;BME280;59983;52.010;5.420;2023-02-19T01:38:41;101822.66;;;9.16;100.00
72110;BME280;59983;52.010;5.420;2023-02-19T01:41:10;101837.00;;;9.16;100.00
72110;BME280;59983;52.010;5.420;2023-02-19T01:44:05;101834.75;;;9.18;100.00
72110;BME280;59983;52.010;5.420;2023-02-19T01:46:36;101838.56;;;9.17;100.00
72110;BME280;59983;52.010;5.420;2023-02-19T01:49:15;101836.66;;;9.18;100.00
72110;BME280;59983;52.010;5.420;2023-02-19T01:51:51;101837.00;;;9.16;100.00
72110;BME280;59983;52.010;5.420;2023-02-19T01:54:21;101833.31;;;9.12;100.00
72110;BME280;59983;52.010;5.420;2023-02-19T01:56:50;101822.81;;;9.11;100.00
72110;BME280;59983;52.010;5.420;2023-02-19T01:59:17;101839.31;;;9.09;100.00
72110;BME280;59983;52.010;5.420;2023-02-19T02:01:44;101845.84;;;9.08;100.00
72110;BME280;59983;52.010;5.420;2023-02-19T02:04:12;101845.06;;;9.07;100.00
72110;BME280;59983;52.010;5.420;2023-02-19T02:06:49;101834.53;;;9.06;100.00
72110;BME280;59983;52.010;5.420;2023-02-19T02:09:23;101839.97;;;9.06;100.00
72110;BME280;59983;52.010;5.420;2023-02-19T02:12:10;101840.75;;;9.06;100.00
72110;BME280;59983;52.010;5.420;2023-02-19T02:14:42;101834.53;;;9.06;100.00
72110;BME280;59983;52.010;5.420;2023-02-19T02:17:19;101848.06;;;9.06;100.00
72110;BME280;59983;52.010;5.420;2023-02-19T02:20:00;101840.75;;;9.06;100.00
72110;BME280;59983;52.010;5.420;2023-02-19T02:22:36;101842.66;;;9.06;100.00
72110;BME280;59983;52.010;5.420;2023-02-19T02:30:55;101839.47;;;9.04;100.00
72110;BME280;59983;52.010;5.420;2023-02-19T02:33:31;101839.47;;;9.04;100.00
72110;BME280;59983;52.010;5.420;2023-02-19T02:36:19;101851.91;;;9.05;100.00
72110;BME280;59983;52.010;5.420;2023-02-19T02:38:50;101844.88;;;9.04;100.00
72110;BME280;59983;52.010;5.420;2023-02-19T02:41:20;101843.78;;;9.05;100.00
72110;BME280;59983;52.010;5.420;2023-02-19T02:43:46;101845.38;;;9.06;100.00
72110;BME280;59983;52.010;5.420;2023-02-19T02:46:18;101848.41;;;9.04;100.00
72110;BME280;59983;52.010;5.420;2023-02-19T02:48:57;101846.47;;;9.05;100.00
72110;BME280;59983;52.010;5.420;2023-02-19T02:51:40;101857.31;;;9.05;100.00
72110;BME280;59983;52.010;5.420;2023-02-19T02:54:19;101864.31;;;9.06;100.00
72110;BME280;59983;52.010;5.420;2023-02-19T02:57:07;101858.09;;;9.05;100.00
72110;BME280;59983;52.010;5.420;2023-02-19T02:59:37;101858.59;;;9.07;100.00
72110;BME280;59983;52.010;5.420;2023-02-19T03:02:15;101861.28;;;9.07;100.00
72110;BME280;59983;52.010;5.420;2023-02-19T03:05:03;101864.81;;;9.08;100.00
72110;BME280;59983;52.010;5.420;2023-02-19T03:10:40;101868.31;;;9.08;100.00
72110;BME280;59983;52.010;5.420;2023-02-19T03:13:19;101871.63;;;9.05;100.00
72110;BME280;59983;52.010;5.420;2023-02-19T03:16:14;101889.00;;;9.04;100.00
72110;BME280;59983;52.010;5.420;2023-02-19T03:19:03;101878.97;;;9.05;100.00
72110;BME280;59983;52.010;5.420;2023-02-19T03:21:56;101871.63;;;9.05;100.00
72110;BME280;59983;52.010;5.420;2023-02-19T03:24:33;101875.78;;;9.03;100.00
72110;BME280;59983;52.010;5.420;2023-02-19T03:27:19;101879.59;;;9.02;100.00
72110;BME280;59983;52.010;5.420;2023-02-19T03:29:49;101874.19;;;9.02;100.00
72110;BME280;59983;52.010;5.420;2023-02-19T03:32:23;101891.22;;;9.02;100.00
72110;BME280;59983;52.010;5.420;2023-02-19T03:35:24;101884.69;;;9.03;100.00
72110;BME280;59983;52.010;5.420;2023-02-19T03:38:09;101889.31;;;9.03;100.00
72110;BME280;59983;52.010;5.420;2023-02-19T03:40:45;101890.09;;;9.03;100.00
72110;BME280;59983;52.010;5.420;2023-02-19T03:43:37;101882.28;;;9.02;100.00
72110;BME280;59983;52.010;5.420;2023-02-19T03:46:10;101897.41;;;9.03;100.00
72110;BME280;59983;52.010;5.420;2023-02-19T03:48:55;101901.53;;;9.00;100.00
72110;BME280;59983;52.010;5.420;2023-02-19T03:51:47;101896.63;;;9.02;100.00
72110;BME280;59983;52.010;5.420;2023-02-19T03:54:43;101898.22;;;9.03;100.00
72110;BME280;59983;52.010;5.420;2023-02-19T03:57:20;101909.03;;;9.03;100.00
72110;BME280;59983;52.010;5.420;2023-02-19T03:59:53;101912.06;;;9.02;100.00
72110;BME280;59983;52.010;5.420;2023-02-19T04:05:16;101918.56;;;9.01;100.00
72110;BME280;59983;52.010;5.420;2023-02-19T04:07:48;101917.47;;;9.02;100.00
72110;BME280;59983;52.010;5.420;2023-02-19T04:10:16;101926.97;;;8.99;100.00
72110;BME280;59983;52.010;5.420;2023-02-19T04:12:48;101925.88;;;9.00;100.00
72110;BME280;59983;52.010;5.420;2023-02-19T04:15:20;101935.31;;;9.03;100.00
72110;BME280;59983;52.010;5.420;2023-02-19T04:17:58;101937.81;;;8.99;100.00
72110;BME280;59983;52.010;5.420;2023-02-19T04:20:28;101937.00;;;8.99;100.00
72110;BME280;59983;52.010;5.420;2023-02-19T04:22:57;101936.69;;;9.00;100.00
72110;BME280;59983;52.010;5.420;2023-02-19T04:25:25;101938.13;;;8.98;100.00
72110;BME280;59983;52.010;5.420;2023-02-19T04:27:53;101934.63;;;8.97;100.00
72110;BME280;59983;52.010;5.420;2023-02-19T04:30:20;101943.03;;;8.96;100.00
72110;BME280;59983;52.010;5.420;2023-02-19T04:32:47;101936.84;;;8.95;100.00
72110;BME280;59983;52.010;5.420;2023-02-19T04:35:13;101936.84;;;8.95;100.00
72110;BME280;59983;52.010;5.420;2023-02-19T04:37:40;101948.78;;;8.94;100.00
72110;BME280;59983;52.010;5.420;2023-02-19T04:40:07;101960.88;;;8.97;100.00
72110;BME280;59983;52.010;5.420;2023-02-19T04:42:34;101965.00;;;8.94;100.00
72110;BME280;59983;52.010;5.420;2023-02-19T04:45:01;101962.00;;;8.96;100.00
72110;BME280;59983;52.010;5.420;2023-02-19T04:47:27;101979.34;;;8.95;100.00
72110;BME280;59983;52.010;5.420;2023-02-19T04:49:54;101970.41;;;8.94;100.00
72110;BME280;59983;52.010;5.420;2023-02-19T04:52:20;101987.75;;;8.93;100.00
72110;BME280;59983;52.010;5.420;2023-02-19T04:54:47;101989.03;;;8.96;100.00
72110;BME280;59983;52.010;5.420;2023-02-19T04:57:14;101990.47;;;8.93;100.00
72110;BME280;59983;52.010;5.420;2023-02-19T04:59:40;101993.66;;;8.95;100.00
72110;BME280;59983;52.010;5.420;2023-02-19T05:02:07;102002.56;;;8.96;100.00
72110;BME280;59983;52.010;5.420;2023-02-19T05:04:33;101999.38;;;8.94;100.00
72110;BME280;59983;52.010;5.420;2023-02-19T05:07:00;102002.09;;;8.94;100.00
72110;BME280;59983;52.010;5.420;2023-02-19T05:09:26;102009.41;;;8.93;100.00
72110;BME280;59983;52.010;5.420;2023-02-19T05:11:53;102014.31;;;8.91;100.00
72110;BME280;59983;52.010;5.420;2023-02-19T05:14:19;102009.69;;;8.92;100.00
72110;BME280;59983;52.010;5.420;2023-02-19T05:16:46;102010.78;;;8.91;100.00
72110;BME280;59983;52.010;5.420;2023-02-19T05:19:12;102017.00;;;8.91;100.00
72110;BME280;59983;52.010;5.420;2023-02-19T05:21:39;102011.09;;;8.89;100.00
72110;BME280;59983;52.010;5.420;2023-02-19T05:24:06;102014.31;;;8.91;100.00
72110;BME280;59983;52.010;5.420;2023-02-19T05:26:33;102020.50;;;8.92;100.00
72110;BME280;59983;52.010;5.420;2023-02-19T05:29:00;102027.03;;;8.91;100.00
72110;BME280;59983;52.010;5.420;2023-02-19T05:31:26;102027.03;;;8.91;100.00
72110;BME280;59983;52.010;5.420;2023-02-19T05:33:56;102025.44;;;8.90;100.00
72110;BME280;59983;52.010;5.420;2023-02-19T05:36:23;102023.03;;;8.88;100.00
72110;BME280;59983;52.010;5.420;2023-02-19T05:38:54;102026.84;;;8.87;100.00
72110;BME280;59983;52.010;5.420;2023-02-19T05:41:29;102027.34;;;8.89;100.00
72110;BME280;59983;52.010;5.420;2023-02-19T05:43:56;102025.44;;;8.90;100.00
72110;BME280;59983;52.010;5.420;2023-02-19T05:46:26;102018.56;;;8.84;100.00
72110;BME280;59983;52.010;5.420;2023-02-19T05:48:54;102018.25;;;8.85;100.00
72110;BME280;59983;52.010;5.420;2023-02-19T05:51:23;102023.66;;;8.85;100.00
72110;BME280;59983;52.010;5.420;2023-02-19T05:53:50;102025.56;;;8.85;100.00
72110;BME280;59983;52.010;5.420;2023-02-19T05:56:27;102018.72;;;8.87;100.00
72110;BME280;59983;52.010;5.420;2023-02-19T05:58:55;102027.16;;;8.86;100.00
72110;BME280;59983;52.010;5.420;2023-02-19T06:01:25;102032.06;;;8.84;100.00
72110;BME280;59983;52.010;5.420;2023-02-19T06:03:51;102041.47;;;8.86;100.00
72110;BME280;59983;52.010;5.420;2023-02-19T06:06:22;102038.78;;;8.86;100.00
72110;BME280;59983;52.010;5.420;2023-02-19T06:08:49;102031.25;;;8.83;100.00
72110;BME280;59983;52.010;5.420;2023-02-19T06:11:16;102031.47;;;8.87;100.00
72110;BME280;59983;52.010;5.420;2023-02-19T06:13:43;102034.47;;;8.85;100.00
72110;BME280;59983;52.010;5.420;2023-02-19T06:16:10;102049.59;;;8.86;100.00
72110;BME280;59983;52.010;5.420;2023-02-19T06:18:37;102052.91;;;8.83;100.00
72110;BME280;59983;52.010;5.420;2023-02-19T06:21:07;102068.84;;;8.85;100.00
72110;BME280;59983;52.010;5.420;2023-02-19T06:23:35;102066.13;;;8.85;100.00
72110;BME280;59983;52.010;5.420;2023-02-19T06:26:13;102079.66;;;8.85;100.00
72110;BME280;59983;52.010;5.420;2023-02-19T06:28:41;102083.66;;;8.87;100.00
72110;BME280;59983;52.010;5.420;2023-02-19T06:31:08;102085.09;;;8.85;100.00
72110;BME280;59983;52.010;5.420;2023-02-19T06:33:35;102088.91;;;8.84;100.00
72110;BME280;59983;52.010;5.420;2023-02-19T06:36:07;102095.91;;;8.85;100.00
72110;BME280;59983;52.010;5.420;2023-02-19T06:38:35;102094.31;;;8.84;100.00
72110;BME280;59983;52.010;5.420;2023-02-19T06:41:04;102087.78;;;8.85;100.00
72110;BME280;59983;52.010;5.420;2023-02-19T06:43:31;102085.34;;;8.83;100.00
72110;BME280;59983;52.010;5.420;2023-02-19T06:46:02;102105.31;;;8.87;100.00
72110;BME280;59983;52.010;5.420;2023-02-19T06:48:30;102098.09;;;8.83;100.00
72110;BME280;59983;52.010;5.420;2023-02-19T06:50:57;102104.03;;;8.85;100.00
72110;BME280;59983;52.010;5.420;2023-02-19T06:53:24;102105.13;;;8.84;100.00
72110;BME280;59983;52.010;5.420;2023-02-19T06:56:04;102107.00;;;8.83;100.00
72110;BME280;59983;52.010;5.420;2023-02-19T06:58:31;102110.81;;;8.82;100.00
72110;BME280;59983;52.010;5.420;2023-02-19T07:00:58;102120.16;;;8.76;100.00
72110;BME280;59983;52.010;5.420;2023-02-19T07:03:25;102121.16;;;8.80;100.00
72110;BME280;59983;52.010;5.420;2023-02-19T07:05:52;102117.94;;;8.78;100.00
72110;BME280;59983;52.010;5.420;2023-02-19T07:08:19;102130.66;;;8.77;100.00
72110;BME280;59983;52.010;5.420;2023-02-19T07:10:53;102133.88;;;8.79;100.00
72110;BME280;59983;52.010;5.420;2023-02-19T07:13:22;102148.31;;;8.75;100.00
72110;BME280;59983;52.010;5.420;2023-02-19T07:15:49;102138.06;;;8.72;100.00
72110;BME280;59983;52.010;5.420;2023-02-19T07:18:17;102143.78;;;8.70;100.00
72110;BME280;59983;52.010;5.420;2023-02-19T07:20:44;102146.19;;;8.72;100.00
72110;BME280;59983;52.010;5.420;2023-02-19T07:23:11;102158.91;;;8.71;100.00
72110;BME280;59983;52.010;5.420;2023-02-19T07:25:37;102155.41;;;8.71;100.00
72110;BME280;59983;52.010;5.420;2023-02-19T07:28:04;102156.50;;;8.70;100.00
72110;BME280;59983;52.010;5.420;2023-02-19T07:30:31;102163.31;;;8.67;100.00
72110;BME280;59983;52.010;5.420;2023-02-19T07:32:57;102165.13;;;8.72;100.00
72110;BME280;59983;52.010;5.420;2023-02-19T07:35:24;102166.53;;;8.69;100.00
72110;BME280;59983;52.010;5.420;2023-02-19T07:37:51;102179.56;;;8.67;100.00
72110;BME280;59983;52.010;5.420;2023-02-19T07:40:17;102178.66;;;8.72;100.00
72110;BME280;59983;52.010;5.420;2023-02-19T07:42:43;102196.41;;;8.78;100.00
72110;BME280;59983;52.010;5.420;2023-02-19T07:45:10;102184.78;;;8.77;100.00
72110;BME280;59983;52.010;5.420;2023-02-19T07:47:36;102189.38;;;8.77;100.00
72110;BME280;59983;52.010;5.420;2023-02-19T07:50:03;102181.56;;;8.75;100.00
72110;BME280;59983;52.010;5.420;2023-02-19T07:52:32;102202.59;;;8.78;100.00
72110;BME280;59983;52.010;5.420;2023-02-19T07:54:59;102204.22;;;8.79;100.00
72110;BME280;59983;52.010;5.420;2023-02-19T07:57:28;102197.81;;;8.75;100.00
72110;BME280;59983;52.010;5.420;2023-02-19T07:59:56;102211.53;;;8.79;100.00
72110;BME280;59983;52.010;5.420;2023-02-19T08:02:24;102219.34;;;8.80;100.00
72110;BME280;59983;52.010;5.420;2023-02-19T08:05:09;102220.13;;;8.81;100.00
72110;BME280;59983;52.010;5.420;2023-02-19T08:07:36;102204.94;;;8.85;100.00
72110;BME280;59983;52.010;5.420;2023-02-19T08:10:03;102228.19;;;8.86;100.00
72110;BME280;59983;52.010;5.420;2023-02-19T08:12:56;102232.88;;;8.80;100.00
72110;BME280;59983;52.010;5.420;2023-02-19T08:15:41;102223.34;;;8.83;100.00
72110;BME280;59983;52.010;5.420;2023-02-19T08:18:09;102236.19;;;8.77;100.00
72110;BME280;59983;52.010;5.420;2023-02-19T08:20:35;102234.88;;;8.75;100.00
72110;BME280;59983;52.010;5.420;2023-02-19T08:23:02;102238.88;;;8.77;100.00
72110;BME280;59983;52.010;5.420;2023-02-19T08:25:28;102239.06;;;8.81;100.00
72110;BME280;59983;52.010;5.420;2023-02-19T08:27:56;102248.53;;;8.84;100.00
72110;BME280;59983;52.010;5.420;2023-02-19T08:30:22;102245.59;;;8.80;100.00
72110;BME280;59983;52.010;5.420;2023-02-19T08:32:49;102249.09;;;8.80;100.00
72110;BME280;59983;52.010;5.420;2023-02-19T08:35:15;102251.22;;;8.84;100.00
72110;BME280;59983;52.010;5.420;2023-02-19T08:37:42;102254.72;;;8.84;100.00
72110;BME280;59983;52.010;5.420;2023-02-19T08:40:09;102271.75;;;8.85;100.00
72110;BME280;59983;52.010;5.420;2023-02-19T08:42:36;102265.56;;;8.84;100.00
72110;BME280;59983;52.010;5.420;2023-02-19T08:45:03;102260.63;;;8.86;100.00
72110;BME280;59983;52.010;5.420;2023-02-19T08:47:30;102266.34;;;8.85;100.00
72110;BME280;59983;52.010;5.420;2023-02-19T08:49:56;102276.56;;;8.88;100.00
72110;BME280;59983;52.010;5.420;2023-02-19T08:52:23;102273.25;;;8.91;100.00
72110;BME280;59983;52.010;5.420;2023-02-19T08:54:49;102285.69;;;8.92;100.00
72110;BME280;59983;52.010;5.420;2023-02-19T08:57:16;102284.00;;;8.96;100.00
72110;BME280;59983;52.010;5.420;2023-02-19T08:59:43;102282.59;;;8.98;100.00
72110;BME280;59983;52.010;5.420;2023-02-19T09:02:09;102285.22;;;9.03;100.00
72110;BME280;59983;52.010;5.420;2023-02-19T09:04:38;102281.72;;;9.03;100.00
72110;BME280;59983;52.010;5.420;2023-02-19T09:07:05;102290.63;;;9.03;100.00
72110;BME280;59983;52.010;5.420;2023-02-19T09:09:36;102281.72;;;9.03;100.00
72110;BME280;59983;52.010;5.420;2023-02-19T09:12:08;102283.00;;;9.05;100.00
72110;BME280;59983;52.010;5.420;2023-02-19T09:14:35;102277.78;;;9.09;100.00
72110;BME280;59983;52.010;5.420;2023-02-19T09:17:04;102275.63;;;9.11;100.00
72110;BME280;59983;52.010;5.420;2023-02-19T09:19:31;102278.81;;;9.13;100.00
72110;BME280;59983;52.010;5.420;2023-02-19T09:21:58;102297.47;;;9.15;100.00
72110;BME280;59983;52.010;5.420;2023-02-19T09:24:25;102304.47;;;9.16;100.00
72110;BME280;59983;52.010;5.420;2023-02-19T09:26:53;102291.63;;;9.07;100.00
72110;BME280;59983;52.010;5.420;2023-02-19T09:29:21;102294.03;;;9.09;100.00
72110;BME280;59983;52.010;5.420;2023-02-19T09:31:47;102311.50;;;9.17;100.00
72110;BME280;59983;52.010;5.420;2023-02-19T09:34:14;102306.56;;;9.19;100.00
72110;BME280;59983;52.010;5.420;2023-02-19T09:36:41;102327.97;;;9.20;100.00
72110;BME280;59983;52.010;5.420;2023-02-19T09:39:08;102336.28;;;9.24;100.00
72110;BME280;59983;52.010;5.420;2023-02-19T09:41:43;102344.31;;;9.29;100.00
72110;BME280;59983;52.010;5.420;2023-02-19T09:44:33;102352.44;;;9.29;100.00
72110;BME280;59983;52.010;5.420;2023-02-19T09:47:02;102361.25;;;9.34;100.00
72110;BME280;59983;52.010;5.420;2023-02-19T09:49:35;102362.16;;;9.44;100.00
72110;BME280;59983;52.010;5.420;2023-02-19T09:52:06;102368.50;;;9.53;100.00
72110;BME280;59983;52.010;5.420;2023-02-19T09:54:36;102374.22;;;9.51;100.00
72110;BME280;59983;52.010;5.420;2023-02-19T09:57:03;102374.22;;;9.51;100.00
72110;BME280;59983;52.010;5.420;2023-02-19T09:59:47;102378.03;;;9.50;100.00
72110;BME280;59983;52.010;5.420;2023-02-19T10:02:16;102376.22;;;9.59;100.00
72110;BME280;59983;52.010;5.420;2023-02-19T10:04:44;102372.91;;;9.62;100.00
72110;BME280;59983;52.010;5.420;2023-02-19T10:07:17;102376.22;;;9.59;100.00
72110;BME280;59983;52.010;5.420;2023-02-19T10:09:49;102387.06;;;9.59;100.00
72110;BME280;59983;52.010;5.420;2023-02-19T10:12:23;102393.50;;;9.63;100.00
72110;BME280;59983;52.010;5.420;2023-02-19T10:14:51;102400.00;;;9.62;100.00
72110;BME280;59983;52.010;5.420;2023-02-19T10:17:27;102411.75;;;9.58;100.00
72110;BME280;59983;52.010;5.420;2023-02-19T10:19:55;102406.72;;;9.51;100.00
72110;BME280;59983;52.010;5.420;2023-02-19T10:22:23;102409.53;;;9.60;100.00
72110;BME280;59983;52.010;5.420;2023-02-19T10:24:54;102415.75;;;9.60;100.00
72110;BME280;59983;52.010;5.420;2023-02-19T10:27:22;102416.47;;;9.66;100.00
72110;BME280;59983;52.010;5.420;2023-02-19T10:29:51;102424.81;;;9.70;100.00
72110;BME280;59983;52.010;5.420;2023-02-19T10:32:23;102426.03;;;9.63;100.00
72110;BME280;59983;52.010;5.420;2023-02-19T10:35:12;102429.53;;;9.64;100.00
72110;BME280;59983;52.010;5.420;2023-02-19T10:37:44;102437.75;;;9.59;100.00
72110;BME280;59983;52.010;5.420;2023-02-19T10:40:38;102436.94;;;9.58;100.00
72110;BME280;59983;52.010;5.420;2023-02-19T10:43:21;102448.56;;;9.59;100.00
72110;BME280;59983;52.010;5.420;2023-02-19T10:45:48;102441.56;;;9.58;100.00
72110;BME280;59983;52.010;5.420;2023-02-19T10:48:30;102459.59;;;9.62;100.00
72110;BME280;59983;52.010;5.420;2023-02-19T10:51:01;102456.50;;;9.55;100.00
72110;BME280;59983;52.010;5.420;2023-02-19T10:56:08;102446.78;;;9.54;100.00
72110;BME280;59983;52.010;5.420;2023-02-19T10:58:36;102456.78;;;9.54;100.00
72110;BME280;59983;52.010;5.420;2023-02-19T11:01:24;102457.00;;;9.57;100.00
72110;BME280;59983;52.010;5.420;2023-02-19T11:04:16;102450.91;;;9.65;100.00
72110;BME280;59983;52.010;5.420;2023-02-19T11:06:44;102447.38;;;9.65;100.00
72110;BME280;59983;52.010;5.420;2023-02-19T11:09:24;102430.41;;;9.59;100.00
72110;BME280;59983;52.010;5.420;2023-02-19T11:11:53;102426.97;;;9.54;100.00
72110;BME280;59983;52.010;5.420;2023-02-19T11:14:22;102437.81;;;9.40;100.00
72110;BME280;59983;52.010;5.420;2023-02-19T11:16:55;102444.50;;;9.29;100.00
72110;BME280;59983;52.010;5.420;2023-02-19T11:19:31;102442.47;;;9.21;100.00
72110;BME280;59983;52.010;5.420;2023-02-19T11:22:00;102445.19;;;9.21;100.00
72110;BME280;59983;52.010;5.420;2023-02-19T11:24:31;102450.97;;;9.14;100.00
72110;BME280;59983;52.010;5.420;2023-02-19T11:27:02;102460.25;;;9.08;100.00
72110;BME280;59983;52.010;5.420;2023-02-19T11:29:30;102450.22;;;9.08;100.00
72110;BME280;59983;52.010;5.420;2023-02-19T11:32:23;102459.94;;;9.09;100.00
72110;BME280;59983;52.010;5.420;2023-02-19T11:34:51;102457.47;;;9.13;100.00
72110;BME280;59983;52.010;5.420;2023-02-19T11:37:19;102451.75;;;9.15;100.00
72110;BME280;59983;52.010;5.420;2023-02-19T11:39:47;102459.22;;;9.23;100.00
72110;BME280;59983;52.010;5.420;2023-02-19T11:45:32;102460.16;;;9.32;100.00
72110;BME280;59983;52.010;5.420;2023-02-19T11:50:55;102468.44;;;9.22;100.00
72110;BME280;59983;52.010;5.420;2023-02-19T11:53:26;102459.00;;;9.19;100.00
72110;BME280;59983;52.010;5.420;2023-02-19T11:56:14;102473.19;;;9.30;100.00
72110;BME280;59983;52.010;5.420;2023-02-19T11:58:57;102464.38;;;9.38;100.00
72110;BME280;59983;52.010;5.420;2023-02-19T12:10:24;102469.44;;;9.26;100.00
72110;BME280;59983;52.010;5.420;2023-02-19T12:15:59;102465.72;;;9.22;100.00
72110;BME280;59983;52.010;5.420;2023-02-19T12:18:46;102469.53;;;9.21;100.00
72110;BME280;59983;52.010;5.420;2023-02-19T12:27:32;102464.00;;;9.12;100.00
72110;BME280;59983;52.010;5.420;2023-02-19T12:38:19;102463.25;;;9.06;100.00
72110;BME280;59983;52.010;5.420;2023-02-19T12:41:22;102464.78;;;9.13;100.00
72110;BME280;59983;52.010;5.420;2023-02-19T12:43:58;102473.34;;;9.20;100.00
72110;BME280;59983;52.010;5.420;2023-02-19T12:46:31;102472.16;;;9.26;100.00
72110;BME280;59983;52.010;5.420;2023-02-19T12:49:06;102466.75;;;9.26;100.00
72110;BME280;59983;52.010;5.420;2023-02-19T12:54:22;102481.38;;;9.25;100.00
72110;BME280;59983;52.010;5.420;2023-02-19T12:57:11;102493.75;;;9.31;100.00
72110;BME280;59983;52.010;5.420;2023-02-19T13:02:15;102499.22;;;9.26;100.00
72110;BME280;59983;52.010;5.420;2023-02-19T13:04:58;102513.72;;;9.16;100.00
72110;BME280;59983;52.010;5.420;2023-02-19T13:07:32;102506.28;;;9.08;100.00
72110;BME280;59983;52.010;5.420;2023-02-19T13:10:25;102512.22;;;9.10;100.00
72110;BME280;59983;52.010;5.420;2023-02-19T13:12:56;102505.09;;;9.14;100.00
72110;BME280;59983;52.010;5.420;2023-02-19T13:15:38;102508.97;;;9.27;100.00
72110;BME280;59983;52.010;5.420;2023-02-19T13:18:15;102522.34;;;9.18;100.00
72110;BME280;59983;52.010;5.420;2023-02-19T13:20:45;102531.81;;;9.21;100.00
72110;BME280;59983;52.010;5.420;2023-02-19T13:23:19;102536.84;;;9.08;100.00
72110;BME280;59983;52.010;5.420;2023-02-19T13:29:16;102557.63;;;8.94;100.00
72110;BME280;59983;52.010;5.420;2023-02-19T13:37:26;102548.16;;;8.92;100.00
72110;BME280;59983;52.010;5.420;2023-02-19T13:39:58;102554.19;;;8.89;100.00
72110;BME280;59983;52.010;5.420;2023-02-19T13:42:33;102556.59;;;8.90;100.00
72110;BME280;59983;52.010;5.420;2023-02-19T13:45:02;102546.22;;;8.97;100.00
72110;BME280;59983;52.010;5.420;2023-02-19T13:52:45;102565.00;;;8.89;100.00
72110;BME280;59983;52.010;5.420;2023-02-19T14:03:52;102575.44;;;8.76;100.00
72110;BME280;59983;52.010;5.420;2023-02-19T14:06:20;102583.41;;;8.68;100.00
72110;BME280;59983;52.010;5.420;2023-02-19T14:08:53;102587.28;;;8.57;100.00
72110;BME280;59983;52.010;5.420;2023-02-19T14:14:40;102595.41;;;8.57;100.00
72110;BME280;59983;52.010;5.420;2023-02-19T14:25:50;102593.00;;;8.55;100.00
72110;BME280;59983;52.010;5.420;2023-02-19T14:28:29;102593.88;;;8.50;100.00
72110;BME280;59983;52.010;5.420;2023-02-19T14:33:33;102584.72;;;8.46;100.00
72110;BME280;59983;52.010;5.420;2023-02-19T14:39:09;102577.81;;;8.59;100.00
72110;BME280;59983;52.010;5.420;2023-02-19T14:41:39;102576.66;;;8.65;100.00
72110;BME280;59983;52.010;5.420;2023-02-19T14:44:15;102567.16;;;8.68;100.00
72110;BME280;59983;52.010;5.420;2023-02-19T14:49:35;102551.97;;;8.48;100.00
72110;BME280;59983;52.010;5.420;2023-02-19T14:52:06;102549.56;;;8.46;100.00